createdAt,value
2019-03-17T00:00:05.409Z,965.36
2019-03-17T00:01:04.491Z,965.41
2019-03-17T00:02:04.644Z,965.47
2019-03-17T00:03:05.115Z,965.38
2019-03-17T00:04:05.335Z,965.36
2019-03-17T00:05:05.454Z,965.47
2019-03-17T00:06:08.124Z,965.50
2019-03-17T00:07:04.776Z,965.41
2019-03-17T00:08:05.040Z,965.50
2019-03-17T00:09:04.696Z,965.44
2019-03-17T00:10:04.688Z,965.41
2019-03-17T00:11:04.974Z,965.27
2019-03-17T00:12:05.127Z,965.55
2019-03-17T00:13:05.184Z,965.27
2019-03-17T00:14:05.159Z,965.24
2019-03-17T00:15:06.829Z,965.27
2019-03-17T00:16:04.622Z,965.30
2019-03-17T00:17:05.215Z,965.19
2019-03-17T00:18:05.318Z,965.22
2019-03-17T00:19:04.658Z,965.24
2019-03-17T00:20:04.714Z,965.22
2019-03-17T00:21:04.894Z,965.16
2019-03-17T00:22:05.033Z,965.16
2019-03-17T00:23:05.132Z,965.30
2019-03-17T00:24:05.123Z,965.10
2019-03-17T00:25:10.434Z,965.10
2019-03-17T00:26:05.202Z,965.13
2019-03-17T00:27:04.560Z,965.22
2019-03-17T00:28:04.770Z,965.14
2019-03-17T00:29:04.816Z,964.99
2019-03-17T00:30:04.999Z,965.16
2019-03-17T00:31:05.018Z,965.05
2019-03-17T00:32:05.484Z,965.16
2019-03-17T00:33:05.238Z,965.11
2019-03-17T00:34:05.387Z,965.16
2019-03-17T00:35:04.518Z,964.97
2019-03-17T00:36:05.043Z,964.99
2019-03-17T00:37:04.614Z,965.05
2019-03-17T00:38:05.328Z,965.14
2019-03-17T00:39:05.381Z,965.22
2019-03-17T00:40:04.896Z,965.16
2019-03-17T00:41:04.933Z,964.91
2019-03-17T00:42:05.104Z,964.94
2019-03-17T00:43:10.450Z,964.89
2019-03-17T00:44:04.903Z,964.94
2019-03-17T00:45:05.316Z,964.89
2019-03-17T00:46:05.480Z,965.00
2019-03-17T00:47:04.641Z,965.00
2019-03-17T00:48:05.047Z,964.89
2019-03-17T00:49:05.070Z,964.95
2019-03-17T00:50:05.492Z,964.89
2019-03-17T00:51:04.939Z,964.79
2019-03-17T00:52:05.427Z,964.89
2019-03-17T00:53:05.041Z,964.90
2019-03-17T00:54:05.249Z,964.95
2019-03-17T00:55:04.606Z,964.68
2019-03-17T00:56:04.601Z,964.84
2019-03-17T00:57:05.069Z,964.74
2019-03-17T00:58:05.081Z,964.87
2019-03-17T00:59:04.662Z,964.76
2019-03-17T01:00:05.165Z,964.84
2019-03-17T01:01:04.485Z,964.62
2019-03-17T01:02:04.999Z,964.74
2019-03-17T01:03:05.289Z,964.79
2019-03-17T01:04:04.875Z,964.71
2019-03-17T01:05:04.827Z,964.68
2019-03-17T01:06:04.924Z,964.65
2019-03-17T01:07:05.200Z,964.65
2019-03-17T01:08:09.815Z,964.71
2019-03-17T01:09:05.278Z,964.65
2019-03-17T01:10:05.430Z,964.63
2019-03-17T01:11:04.815Z,964.62
2019-03-17T01:12:04.747Z,964.60
2019-03-17T01:13:04.822Z,964.60
2019-03-17T01:14:04.889Z,964.68
2019-03-17T01:15:04.526Z,964.60
2019-03-17T01:16:05.121Z,964.68
2019-03-17T01:17:05.166Z,964.65
2019-03-17T01:18:05.333Z,964.63
2019-03-17T01:19:05.514Z,964.66
2019-03-17T01:20:04.633Z,964.57
2019-03-17T01:21:04.944Z,964.57
2019-03-17T01:22:05.009Z,964.49
2019-03-17T01:23:05.289Z,964.60
2019-03-17T01:24:05.346Z,964.49
2019-03-17T01:25:05.554Z,964.46
2019-03-17T01:26:04.721Z,964.46
2019-03-17T01:27:04.935Z,964.63
2019-03-17T01:28:05.334Z,964.54
2019-03-17T01:29:04.767Z,964.37
2019-03-17T01:30:05.172Z,964.29
2019-03-17T01:31:04.794Z,964.32
2019-03-17T01:32:05.191Z,964.38
2019-03-17T01:33:04.704Z,964.38
2019-03-17T01:34:04.700Z,964.40
2019-03-17T01:35:10.406Z,964.21
2019-03-17T01:36:05.088Z,964.35
2019-03-17T01:37:05.093Z,964.35
2019-03-17T01:38:04.872Z,964.18
2019-03-17T01:39:05.200Z,964.35
2019-03-17T01:40:04.603Z,964.27
2019-03-17T01:41:05.108Z,964.27
2019-03-17T01:42:04.842Z,964.29
2019-03-17T01:43:09.986Z,964.29
2019-03-17T01:44:05.455Z,964.35
2019-03-17T01:45:05.048Z,964.49
2019-03-17T01:46:05.211Z,964.27
2019-03-17T01:47:04.857Z,964.21
2019-03-17T01:48:05.015Z,964.44
2019-03-17T01:49:05.093Z,964.24
2019-03-17T01:50:05.180Z,964.33
2019-03-17T01:51:05.142Z,964.21
2019-03-17T01:52:05.338Z,964.24
2019-03-17T01:53:04.622Z,964.21
2019-03-17T01:54:05.218Z,964.30
2019-03-17T01:55:04.839Z,964.19
2019-03-17T01:56:05.027Z,964.21
2019-03-17T01:57:04.509Z,964.19
2019-03-17T01:58:05.144Z,964.27
2019-03-17T01:59:05.519Z,964.24
2019-03-17T02:00:04.705Z,964.05
2019-03-17T02:01:05.101Z,964.22
2019-03-17T02:02:04.637Z,964.19
2019-03-17T02:03:04.692Z,964.10
2019-03-17T02:04:04.715Z,964.11
2019-03-17T02:05:04.815Z,963.96
2019-03-17T02:06:05.052Z,964.05
2019-03-17T02:07:05.494Z,963.99
2019-03-17T02:08:05.587Z,964.08
2019-03-17T02:09:04.961Z,964.02
2019-03-17T02:10:05.137Z,963.94
2019-03-17T02:11:04.577Z,964.05
2019-03-17T02:12:05.182Z,963.94
2019-03-17T02:13:05.401Z,963.97
2019-03-17T02:14:04.637Z,963.97
2019-03-17T02:15:04.829Z,963.89
2019-03-17T02:16:05.366Z,963.94
2019-03-17T02:17:04.559Z,963.94
2019-03-17T02:18:05.439Z,963.91
2019-03-17T02:19:05.362Z,963.84
2019-03-17T02:20:04.639Z,963.87
2019-03-17T02:21:04.797Z,963.87
2019-03-17T02:22:04.943Z,963.89
2019-03-17T02:23:05.127Z,963.87
2019-03-17T02:24:05.167Z,963.87
2019-03-17T02:25:05.281Z,963.84
2019-03-17T02:26:04.999Z,963.75
2019-03-17T02:27:04.805Z,963.75
2019-03-17T02:28:04.779Z,963.75
2019-03-17T02:29:04.909Z,963.64
2019-03-17T02:30:04.988Z,963.67
2019-03-17T02:31:05.331Z,963.61
2019-03-17T02:32:04.819Z,963.72
2019-03-17T02:33:04.910Z,963.58
2019-03-17T02:34:05.345Z,963.55
2019-03-17T02:35:04.742Z,963.67
2019-03-17T02:36:04.861Z,963.55
2019-03-17T02:37:04.814Z,963.44
2019-03-17T02:38:05.052Z,963.58
2019-03-17T02:39:04.956Z,963.66
2019-03-17T02:40:05.314Z,963.52
2019-03-17T02:41:04.850Z,963.58
2019-03-17T02:42:04.788Z,963.49
2019-03-17T02:43:10.030Z,963.55
2019-03-17T02:44:05.421Z,963.40
2019-03-17T02:45:04.717Z,963.44
2019-03-17T02:46:05.193Z,963.40
2019-03-17T02:47:05.240Z,963.52
2019-03-17T02:48:05.298Z,963.46
2019-03-17T02:49:05.416Z,963.49
2019-03-17T02:50:04.832Z,963.40
2019-03-17T02:51:04.714Z,963.46
2019-03-17T02:52:05.276Z,963.35
2019-03-17T02:53:04.943Z,963.49
2019-03-17T02:54:04.557Z,963.51
2019-03-17T02:55:04.632Z,963.43
2019-03-17T02:56:05.307Z,963.37
2019-03-17T02:57:05.486Z,963.49
2019-03-17T02:58:04.735Z,963.35
2019-03-17T02:59:04.824Z,963.37
2019-03-17T03:00:05.468Z,963.37
2019-03-17T03:01:04.807Z,963.12
2019-03-17T03:02:05.239Z,963.26
2019-03-17T03:03:10.351Z,963.48
2019-03-17T03:04:04.870Z,963.34
2019-03-17T03:05:04.952Z,963.34
2019-03-17T03:06:04.938Z,963.31
2019-03-17T03:07:05.126Z,963.17
2019-03-17T03:08:05.098Z,963.26
2019-03-17T03:09:05.430Z,963.23
2019-03-17T03:10:04.697Z,963.26
2019-03-17T03:11:04.815Z,963.37
2019-03-17T03:12:05.342Z,963.26
2019-03-17T03:13:05.362Z,963.40
2019-03-17T03:14:05.463Z,963.23
2019-03-17T03:15:05.448Z,963.29
2019-03-17T03:16:06.476Z,963.29
2019-03-17T03:17:05.154Z,963.26
2019-03-17T03:18:04.693Z,963.14
2019-03-17T03:19:04.722Z,963.23
2019-03-17T03:20:05.232Z,963.09
2019-03-17T03:21:04.895Z,963.23
2019-03-17T03:22:04.863Z,963.25
2019-03-17T03:23:05.397Z,963.20
2019-03-17T03:24:05.195Z,963.28
2019-03-17T03:25:05.392Z,963.14
2019-03-17T03:26:05.473Z,963.20
2019-03-17T03:27:04.671Z,963.11
2019-03-17T03:28:04.868Z,963.11
2019-03-17T03:29:05.158Z,963.17
2019-03-17T03:30:05.224Z,963.09
2019-03-17T03:31:05.424Z,963.14
2019-03-17T03:32:04.879Z,963.20
2019-03-17T03:33:05.162Z,963.17
2019-03-17T03:34:04.781Z,963.17
2019-03-17T03:35:04.761Z,963.12
2019-03-17T03:36:12.186Z,963.06
2019-03-17T03:37:04.800Z,963.09
2019-03-17T03:38:05.215Z,963.12
2019-03-17T03:39:05.572Z,963.03
2019-03-17T03:40:04.653Z,963.01
2019-03-17T03:41:04.775Z,963.06
2019-03-17T03:42:05.246Z,962.87
2019-03-17T03:43:05.315Z,962.95
2019-03-17T03:44:05.461Z,963.04
2019-03-17T03:45:05.455Z,963.09
2019-03-17T03:46:04.911Z,962.98
2019-03-17T03:47:04.892Z,963.04
2019-03-17T03:48:05.438Z,962.95
2019-03-17T03:49:04.776Z,962.98
2019-03-17T03:50:04.801Z,963.12
2019-03-17T03:51:05.313Z,962.98
2019-03-17T03:52:04.848Z,963.04
2019-03-17T03:53:05.287Z,963.04
2019-03-17T03:54:05.469Z,962.98
2019-03-17T03:55:05.072Z,963.04
2019-03-17T03:56:04.620Z,962.95
2019-03-17T03:57:05.343Z,962.92
2019-03-17T03:58:05.458Z,963.09
2019-03-17T03:59:09.844Z,962.92
2019-03-17T04:00:05.238Z,962.87
2019-03-17T04:01:04.552Z,962.84
2019-03-17T04:02:04.907Z,962.90
2019-03-17T04:03:05.459Z,962.81
2019-03-17T04:04:05.423Z,962.84
2019-03-17T04:05:04.532Z,962.84
2019-03-17T04:06:05.101Z,962.73
2019-03-17T04:07:05.220Z,962.73
2019-03-17T04:08:05.429Z,962.89
2019-03-17T04:09:05.318Z,962.95
2019-03-17T04:10:05.629Z,962.75
2019-03-17T04:11:05.080Z,962.78
2019-03-17T04:12:04.775Z,962.84
2019-03-17T04:13:04.924Z,962.84
2019-03-17T04:14:05.379Z,962.78
2019-03-17T04:15:04.703Z,962.70
2019-03-17T04:16:04.764Z,962.73
2019-03-17T04:17:04.851Z,962.81
2019-03-17T04:18:04.856Z,962.73
2019-03-17T04:19:05.177Z,962.76
2019-03-17T04:20:05.314Z,962.78
2019-03-17T04:21:05.498Z,962.62
2019-03-17T04:22:04.617Z,962.73
2019-03-17T04:23:05.096Z,962.62
2019-03-17T04:24:05.081Z,962.53
2019-03-17T04:25:05.421Z,962.62
2019-03-17T04:26:04.934Z,962.62
2019-03-17T04:27:04.771Z,962.56
2019-03-17T04:28:04.765Z,962.56
2019-03-17T04:29:04.839Z,962.65
2019-03-17T04:30:05.011Z,962.79
2019-03-17T04:31:05.194Z,962.62
2019-03-17T04:32:04.696Z,962.48
2019-03-17T04:33:05.077Z,962.57
2019-03-17T04:34:05.049Z,962.57
2019-03-17T04:35:05.312Z,962.36
2019-03-17T04:36:04.681Z,962.52
2019-03-17T04:37:05.149Z,962.54
2019-03-17T04:38:05.231Z,962.57
2019-03-17T04:39:04.627Z,962.47
2019-03-17T04:40:04.835Z,962.47
2019-03-17T04:41:05.541Z,962.33
2019-03-17T04:42:05.413Z,962.27
2019-03-17T04:43:10.579Z,962.33
2019-03-17T04:44:05.079Z,962.36
2019-03-17T04:45:05.104Z,962.39
2019-03-17T04:46:05.275Z,962.33
2019-03-17T04:47:05.407Z,962.30
2019-03-17T04:48:05.433Z,962.35
2019-03-17T04:49:04.558Z,962.19
2019-03-17T04:50:04.563Z,962.14
2019-03-17T04:51:04.789Z,962.16
2019-03-17T04:52:05.250Z,962.19
2019-03-17T04:53:04.742Z,962.16
2019-03-17T04:54:05.187Z,962.05
2019-03-17T04:55:05.367Z,962.05
2019-03-17T04:56:04.685Z,962.10
2019-03-17T04:57:05.559Z,962.04
2019-03-17T04:58:04.607Z,962.01
2019-03-17T04:59:04.676Z,962.04
2019-03-17T05:00:04.988Z,961.96
2019-03-17T05:01:04.569Z,961.96
2019-03-17T05:02:04.604Z,962.07
2019-03-17T05:03:05.170Z,962.01
2019-03-17T05:04:04.784Z,961.95
2019-03-17T05:05:04.761Z,962.19
2019-03-17T05:06:04.969Z,962.22
2019-03-17T05:07:10.320Z,962.22
2019-03-17T05:08:05.492Z,962.03
2019-03-17T05:09:04.902Z,962.06
2019-03-17T05:10:05.101Z,962.22
2019-03-17T05:11:05.484Z,962.17
2019-03-17T05:12:05.109Z,962.08
2019-03-17T05:13:05.222Z,961.94
2019-03-17T05:14:05.221Z,962.14
2019-03-17T05:15:05.072Z,962.00
2019-03-17T05:16:04.996Z,962.00
2019-03-17T05:17:04.876Z,962.19
2019-03-17T05:18:05.300Z,962.02
2019-03-17T05:19:04.794Z,961.88
2019-03-17T05:20:05.089Z,961.97
2019-03-17T05:21:05.389Z,961.94
2019-03-17T05:22:04.624Z,962.02
2019-03-17T05:23:06.509Z,961.94
2019-03-17T05:24:05.171Z,961.96
2019-03-17T05:25:06.030Z,962.02
2019-03-17T05:26:05.295Z,962.05
2019-03-17T05:27:05.591Z,962.05
2019-03-17T05:28:04.751Z,961.94
2019-03-17T05:29:04.611Z,961.94
2019-03-17T05:30:04.949Z,961.96
2019-03-17T05:31:05.476Z,961.91
2019-03-17T05:32:05.059Z,961.99
2019-03-17T05:33:05.597Z,962.02
2019-03-17T05:34:04.800Z,961.99
2019-03-17T05:35:04.879Z,961.97
2019-03-17T05:36:04.780Z,961.99
2019-03-17T05:37:07.123Z,962.08
2019-03-17T05:38:04.893Z,962.02
2019-03-17T05:39:05.169Z,961.96
2019-03-17T05:40:05.451Z,961.99
2019-03-17T05:41:04.579Z,962.08
2019-03-17T05:42:05.179Z,962.16
2019-03-17T05:43:05.833Z,962.16
2019-03-17T05:44:04.760Z,962.13
2019-03-17T05:45:05.324Z,962.05
2019-03-17T05:46:04.707Z,961.96
2019-03-17T05:47:04.947Z,962.02
2019-03-17T05:48:04.856Z,961.99
2019-03-17T05:49:05.301Z,962.02
2019-03-17T05:50:05.411Z,961.99
2019-03-17T05:51:05.317Z,961.85
2019-03-17T05:52:04.953Z,961.99
2019-03-17T05:53:05.123Z,961.94
2019-03-17T05:54:04.899Z,961.88
2019-03-17T05:55:04.922Z,962.02
2019-03-17T05:56:05.530Z,961.90
2019-03-17T05:57:04.721Z,962.07
2019-03-17T05:58:04.884Z,962.01
2019-03-17T05:59:04.871Z,961.92
2019-03-17T06:00:04.965Z,962.00
2019-03-17T06:01:04.506Z,962.03
2019-03-17T06:02:04.644Z,961.99
2019-03-17T06:03:10.272Z,962.01
2019-03-17T06:04:04.956Z,962.11
2019-03-17T06:05:05.093Z,962.16
2019-03-17T06:06:04.531Z,961.99
2019-03-17T06:07:04.795Z,962.10
2019-03-17T06:08:04.868Z,962.01
2019-03-17T06:09:05.311Z,962.03
2019-03-17T06:10:05.324Z,962.02
2019-03-17T06:11:05.142Z,961.96
2019-03-17T06:12:05.357Z,961.95
2019-03-17T06:13:05.539Z,961.92
2019-03-17T06:14:04.965Z,961.94
2019-03-17T06:15:05.180Z,961.90
2019-03-17T06:16:05.039Z,961.92
2019-03-17T06:17:05.510Z,961.91
2019-03-17T06:18:04.587Z,961.93
2019-03-17T06:19:05.304Z,961.98
2019-03-17T06:20:04.838Z,961.86
2019-03-17T06:21:05.052Z,961.96
2019-03-17T06:22:05.156Z,961.92
2019-03-17T06:23:05.447Z,961.86
2019-03-17T06:24:04.724Z,961.91
2019-03-17T06:25:05.281Z,962.07
2019-03-17T06:26:05.259Z,961.89
2019-03-17T06:27:05.284Z,962.12
2019-03-17T06:28:05.056Z,961.80
2019-03-17T06:29:05.077Z,961.96
2019-03-17T06:30:04.792Z,961.85
2019-03-17T06:31:04.982Z,961.87
2019-03-17T06:32:05.068Z,961.84
2019-03-17T06:33:05.257Z,961.97
2019-03-17T06:34:05.432Z,962.06
2019-03-17T06:35:04.592Z,961.85
2019-03-17T06:36:04.806Z,961.85
2019-03-17T06:37:05.021Z,961.84
2019-03-17T06:38:05.213Z,961.95
2019-03-17T06:39:05.056Z,961.86
2019-03-17T06:40:05.593Z,961.94
2019-03-17T06:41:04.816Z,961.91
2019-03-17T06:42:05.305Z,961.98
2019-03-17T06:43:09.744Z,961.92
2019-03-17T06:44:05.104Z,962.03
2019-03-17T06:45:04.699Z,962.05
2019-03-17T06:46:05.157Z,962.07
2019-03-17T06:47:06.357Z,962.01
2019-03-17T06:48:05.076Z,962.03
2019-03-17T06:49:05.237Z,962.03
2019-03-17T06:50:04.904Z,962.03
2019-03-17T06:51:05.121Z,962.05
2019-03-17T06:52:05.352Z,962.00
2019-03-17T06:53:05.208Z,962.03
2019-03-17T06:54:05.357Z,962.08
2019-03-17T06:55:05.370Z,961.92
2019-03-17T06:56:04.821Z,962.03
2019-03-17T06:57:04.873Z,962.09
2019-03-17T06:58:04.847Z,961.97
2019-03-17T06:59:04.781Z,962.19
2019-03-17T07:00:05.047Z,962.05
2019-03-17T07:01:04.625Z,962.08
2019-03-17T07:02:04.461Z,962.05
2019-03-17T07:03:04.493Z,962.08
2019-03-17T07:04:05.114Z,961.96
2019-03-17T07:05:05.186Z,962.05
2019-03-17T07:06:05.070Z,961.96
2019-03-17T07:07:05.408Z,961.96
2019-03-17T07:08:05.005Z,961.98
2019-03-17T07:09:04.947Z,962.12
2019-03-17T07:10:05.014Z,962.12
2019-03-17T07:11:04.952Z,962.00
2019-03-17T07:12:04.976Z,961.91
2019-03-17T07:13:04.953Z,962.03
2019-03-17T07:14:04.825Z,962.17
2019-03-17T07:15:05.253Z,961.97
2019-03-17T07:16:04.873Z,962.08
2019-03-17T07:17:04.985Z,962.21
2019-03-17T07:18:05.161Z,961.93
2019-03-17T07:19:04.622Z,962.08
2019-03-17T07:20:04.645Z,961.99
2019-03-17T07:21:04.622Z,962.02
2019-03-17T07:22:04.575Z,962.07
2019-03-17T07:23:04.867Z,962.13
2019-03-17T07:24:04.787Z,961.87
2019-03-17T07:25:05.379Z,961.98
2019-03-17T07:26:05.354Z,962.00
2019-03-17T07:27:04.747Z,962.19
2019-03-17T07:28:04.692Z,962.14
2019-03-17T07:29:05.215Z,962.17
2019-03-17T07:30:05.331Z,962.14
2019-03-17T07:31:04.951Z,962.02
2019-03-17T07:32:04.906Z,962.05
2019-03-17T07:33:04.852Z,962.16
2019-03-17T07:34:04.867Z,962.02
2019-03-17T07:35:04.882Z,962.16
2019-03-17T07:36:04.437Z,962.13
2019-03-17T07:37:04.419Z,962.13
2019-03-17T07:38:04.542Z,962.16
2019-03-17T07:39:12.563Z,962.20
2019-03-17T07:40:05.142Z,962.10
2019-03-17T07:41:04.607Z,962.20
2019-03-17T07:42:05.118Z,962.40
2019-03-17T07:43:09.686Z,962.18
2019-03-17T07:44:04.836Z,962.12
2019-03-17T07:45:04.766Z,962.20
2019-03-17T07:46:04.893Z,962.31
2019-03-17T07:47:04.780Z,962.34
2019-03-17T07:48:04.845Z,962.20
2019-03-17T07:49:04.818Z,962.23
2019-03-17T07:50:05.313Z,962.15
2019-03-17T07:51:05.373Z,962.34
2019-03-17T07:52:04.809Z,962.15
2019-03-17T07:53:04.959Z,962.34
2019-03-17T07:54:04.973Z,962.12
2019-03-17T07:55:05.089Z,962.40
2019-03-17T07:56:05.118Z,962.40
2019-03-17T07:57:04.901Z,962.31
2019-03-17T07:58:04.842Z,962.31
2019-03-17T07:59:05.302Z,962.45
2019-03-17T08:00:05.367Z,962.34
2019-03-17T08:01:04.446Z,962.34
2019-03-17T08:02:05.634Z,962.45
2019-03-17T08:03:05.289Z,962.34
2019-03-17T08:04:05.294Z,962.39
2019-03-17T08:05:05.352Z,962.45
2019-03-17T08:06:04.420Z,962.48
2019-03-17T08:07:04.574Z,962.52
2019-03-17T08:08:10.157Z,962.49
2019-03-17T08:09:04.728Z,962.55
2019-03-17T08:10:05.230Z,962.49
2019-03-17T08:11:05.286Z,962.47
2019-03-17T08:12:04.682Z,962.57
2019-03-17T08:13:04.781Z,962.51
2019-03-17T08:14:04.916Z,962.51
2019-03-17T08:15:05.184Z,962.54
2019-03-17T08:16:04.629Z,962.65
2019-03-17T08:17:05.216Z,962.71
2019-03-17T08:18:05.330Z,962.62
2019-03-17T08:19:05.087Z,962.79
2019-03-17T08:20:05.104Z,962.62
2019-03-17T08:21:04.979Z,962.91
2019-03-17T08:22:05.168Z,962.76
2019-03-17T08:23:05.161Z,962.82
2019-03-17T08:24:04.653Z,962.91
2019-03-17T08:25:04.909Z,962.90
2019-03-17T08:26:04.984Z,962.76
2019-03-17T08:27:05.104Z,962.84
2019-03-17T08:28:05.428Z,962.93
2019-03-17T08:29:05.267Z,962.90
2019-03-17T08:30:04.497Z,963.02
2019-03-17T08:31:04.468Z,963.10
2019-03-17T08:32:04.509Z,962.93
2019-03-17T08:33:04.685Z,963.11
2019-03-17T08:34:05.165Z,963.08
2019-03-17T08:35:04.756Z,963.14
2019-03-17T08:36:04.747Z,963.14
2019-03-17T08:37:04.760Z,963.14
2019-03-17T08:38:05.002Z,963.22
2019-03-17T08:39:05.300Z,963.16
2019-03-17T08:40:05.192Z,963.19
2019-03-17T08:41:05.174Z,963.33
2019-03-17T08:42:04.784Z,963.07
2019-03-17T08:43:05.066Z,963.16
2019-03-17T08:44:05.049Z,963.16
2019-03-17T08:45:05.036Z,963.33
2019-03-17T08:46:05.105Z,963.19
2019-03-17T08:47:05.262Z,963.22
2019-03-17T08:48:04.563Z,963.16
2019-03-17T08:49:04.637Z,962.99
2019-03-17T08:50:04.621Z,963.25
2019-03-17T08:51:04.768Z,963.02
2019-03-17T08:52:04.807Z,963.17
2019-03-17T08:53:05.346Z,963.00
2019-03-17T08:54:05.274Z,963.17
2019-03-17T08:55:05.409Z,963.09
2019-03-17T08:56:04.748Z,963.00
2019-03-17T08:57:05.295Z,963.00
2019-03-17T08:58:04.477Z,963.06
2019-03-17T08:59:04.865Z,963.11
2019-03-17T09:00:04.770Z,963.14
2019-03-17T09:01:04.840Z,963.14
2019-03-17T09:02:05.322Z,963.11
2019-03-17T09:03:04.714Z,963.02
2019-03-17T09:04:04.809Z,963.02
2019-03-17T09:05:04.715Z,963.08
2019-03-17T09:06:04.919Z,962.96
2019-03-17T09:07:05.404Z,963.05
2019-03-17T09:08:04.474Z,962.96
2019-03-17T09:09:04.602Z,963.16
2019-03-17T09:10:05.202Z,962.90
2019-03-17T09:11:05.089Z,963.10
2019-03-17T09:12:05.079Z,963.09
2019-03-17T09:13:04.835Z,963.06
2019-03-17T09:14:04.644Z,963.00
2019-03-17T09:15:04.504Z,962.92
2019-03-17T09:16:04.454Z,963.14
2019-03-17T09:17:14.904Z,963.05
2019-03-17T09:18:04.464Z,963.05
2019-03-17T09:19:04.762Z,963.19
2019-03-17T09:20:04.847Z,962.99
2019-03-17T09:21:04.877Z,963.16
2019-03-17T09:22:04.906Z,963.19
2019-03-17T09:23:05.297Z,963.16
2019-03-17T09:24:17.713Z,963.04
2019-03-17T09:25:05.255Z,963.04
2019-03-17T09:26:05.397Z,963.22
2019-03-17T09:27:04.634Z,963.25
2019-03-17T09:28:04.639Z,963.10
2019-03-17T09:29:04.729Z,963.05
2019-03-17T09:30:05.251Z,963.16
2019-03-17T09:31:07.851Z,963.11
2019-03-17T09:32:05.348Z,963.10
2019-03-17T09:33:04.800Z,963.19
2019-03-17T09:34:05.217Z,963.16
2019-03-17T09:35:04.798Z,963.07
2019-03-17T09:36:04.897Z,963.07
2019-03-17T09:37:05.043Z,963.15
2019-03-17T09:38:05.033Z,963.04
2019-03-17T09:39:04.937Z,963.13
2019-03-17T09:40:05.016Z,963.18
2019-03-17T09:41:05.054Z,963.12
2019-03-17T09:42:04.895Z,963.04
2019-03-17T09:43:10.102Z,963.06
2019-03-17T09:44:05.453Z,963.01
2019-03-17T09:45:05.387Z,963.06
2019-03-17T09:46:05.071Z,963.09
2019-03-17T09:47:04.940Z,963.21
2019-03-17T09:48:04.998Z,963.01
2019-03-17T09:49:04.935Z,963.02
2019-03-17T09:50:04.967Z,962.93
2019-03-17T09:51:04.535Z,963.13
2019-03-17T09:52:04.641Z,963.08
2019-03-17T09:53:04.463Z,963.13
2019-03-17T09:54:04.681Z,963.05
2019-03-17T09:55:04.588Z,962.99
2019-03-17T09:56:04.613Z,962.96
2019-03-17T09:57:05.275Z,962.96
2019-03-17T09:58:05.162Z,962.92
2019-03-17T09:59:04.666Z,963.07
2019-03-17T10:00:04.924Z,962.92
2019-03-17T10:01:05.176Z,963.00
2019-03-17T10:02:05.376Z,963.03
2019-03-17T10:03:05.270Z,963.06
2019-03-17T10:04:05.407Z,962.88
2019-03-17T10:05:05.363Z,962.94
2019-03-17T10:06:04.386Z,962.96
2019-03-17T10:07:04.653Z,963.05
2019-03-17T10:08:04.660Z,962.84
2019-03-17T10:09:04.732Z,962.81
2019-03-17T10:10:05.110Z,962.90
2019-03-17T10:11:05.044Z,962.81
2019-03-17T10:12:05.214Z,962.92
2019-03-17T10:13:04.451Z,963.07
2019-03-17T10:14:04.511Z,962.78
2019-03-17T10:15:05.019Z,962.87
2019-03-17T10:16:05.150Z,962.87
2019-03-17T10:17:04.437Z,962.84
2019-03-17T10:18:05.359Z,962.81
2019-03-17T10:19:04.412Z,962.81
2019-03-17T10:20:04.867Z,962.84
2019-03-17T10:21:05.274Z,962.90
2019-03-17T10:22:04.859Z,962.78
2019-03-17T10:23:04.478Z,962.93
2019-03-17T10:24:04.518Z,962.99
2019-03-17T10:25:04.554Z,962.99
2019-03-17T10:26:04.442Z,962.85
2019-03-17T10:27:04.605Z,962.93
2019-03-17T10:28:04.543Z,962.85
2019-03-17T10:29:04.537Z,962.85
2019-03-17T10:30:04.513Z,962.85
2019-03-17T10:31:04.576Z,962.85
2019-03-17T10:32:04.702Z,962.82
2019-03-17T10:33:04.985Z,962.96
2019-03-17T10:34:05.109Z,962.93
2019-03-17T10:35:04.992Z,962.79
2019-03-17T10:36:05.428Z,962.84
2019-03-17T10:37:04.831Z,962.90
2019-03-17T10:38:05.075Z,962.87
2019-03-17T10:39:12.950Z,962.92
2019-03-17T10:40:04.542Z,962.97
2019-03-17T10:41:04.542Z,963.03
2019-03-17T10:42:04.563Z,963.03
2019-03-17T10:43:09.754Z,962.92
2019-03-17T10:44:05.115Z,963.09
2019-03-17T10:45:04.568Z,963.01
2019-03-17T10:46:04.444Z,963.21
2019-03-17T10:47:04.635Z,963.07
2019-03-17T10:48:04.693Z,963.16
2019-03-17T10:49:04.731Z,963.04
2019-03-17T10:50:04.810Z,963.18
2019-03-17T10:51:04.949Z,962.98
2019-03-17T10:52:04.447Z,963.07
2019-03-17T10:53:04.710Z,962.95
2019-03-17T10:54:04.682Z,963.04
2019-03-17T10:55:04.651Z,963.04
2019-03-17T10:56:05.151Z,963.07
2019-03-17T10:57:05.164Z,963.07
2019-03-17T10:58:05.276Z,963.07
2019-03-17T10:59:05.172Z,963.05
2019-03-17T11:00:04.405Z,962.99
2019-03-17T11:01:04.438Z,963.07
2019-03-17T11:02:04.522Z,962.93
2019-03-17T11:03:04.506Z,962.92
2019-03-17T11:04:04.510Z,962.98
2019-03-17T11:05:04.789Z,962.97
2019-03-17T11:06:05.003Z,963.00
2019-03-17T11:07:04.487Z,962.99
2019-03-17T11:08:04.917Z,962.90
2019-03-17T11:09:05.392Z,962.84
2019-03-17T11:10:04.454Z,963.18
2019-03-17T11:11:05.177Z,962.97
2019-03-17T11:12:04.956Z,962.85
2019-03-17T11:13:05.025Z,962.85
2019-03-17T11:14:05.339Z,962.90
2019-03-17T11:15:04.644Z,962.87
2019-03-17T11:16:04.792Z,962.84
2019-03-17T11:17:04.860Z,962.87
2019-03-17T11:18:05.204Z,962.96
2019-03-17T11:19:05.375Z,962.93
2019-03-17T11:20:05.249Z,962.85
2019-03-17T11:21:05.335Z,962.99
2019-03-17T11:22:05.377Z,962.82
2019-03-17T11:23:05.395Z,962.91
2019-03-17T11:24:05.241Z,962.79
2019-03-17T11:25:04.805Z,962.80
2019-03-17T11:26:04.900Z,962.85
2019-03-17T11:27:05.283Z,962.97
2019-03-17T11:28:05.373Z,962.79
2019-03-17T11:29:04.613Z,962.76
2019-03-17T11:30:04.677Z,962.67
2019-03-17T11:31:04.689Z,962.69
2019-03-17T11:32:07.072Z,962.75
2019-03-17T11:33:04.608Z,962.74
2019-03-17T11:34:04.669Z,962.71
2019-03-17T11:35:04.758Z,962.65
2019-03-17T11:36:04.695Z,962.73
2019-03-17T11:37:04.651Z,962.70
2019-03-17T11:38:05.086Z,962.68
2019-03-17T11:39:05.028Z,962.73
2019-03-17T11:40:04.629Z,962.62
2019-03-17T11:41:04.975Z,962.62
2019-03-17T11:42:04.972Z,962.70
2019-03-17T11:43:09.616Z,962.73
2019-03-17T11:44:04.952Z,962.64
2019-03-17T11:45:05.473Z,962.61
2019-03-17T11:46:05.341Z,962.69
2019-03-17T11:47:05.262Z,962.63
2019-03-17T11:48:05.382Z,962.63
2019-03-17T11:49:05.378Z,962.60
2019-03-17T11:50:04.951Z,962.63
2019-03-17T11:51:04.924Z,962.49
2019-03-17T11:52:04.967Z,962.64
2019-03-17T11:53:04.524Z,962.59
2019-03-17T11:54:05.448Z,962.59
2019-03-17T11:55:04.553Z,962.46
2019-03-17T11:56:04.619Z,962.57
2019-03-17T11:57:04.720Z,962.60
2019-03-17T11:58:04.576Z,962.57
2019-03-17T11:59:04.647Z,962.44
2019-03-17T12:00:04.550Z,962.45
2019-03-17T12:01:04.585Z,962.64
2019-03-17T12:02:04.672Z,962.53
2019-03-17T12:03:04.560Z,962.48
2019-03-17T12:04:04.598Z,962.50
2019-03-17T12:05:05.176Z,962.53
2019-03-17T12:06:04.797Z,962.36
2019-03-17T12:07:04.712Z,962.45
2019-03-17T12:08:05.050Z,962.39
2019-03-17T12:09:04.972Z,962.61
2019-03-17T12:10:04.611Z,962.52
2019-03-17T12:11:04.526Z,962.52
2019-03-17T12:12:04.548Z,962.49
2019-03-17T12:13:05.095Z,962.44
2019-03-17T12:14:10.366Z,962.63
2019-03-17T12:15:04.715Z,962.60
2019-03-17T12:16:04.873Z,962.48
2019-03-17T12:17:04.756Z,962.46
2019-03-17T12:18:04.724Z,962.51
2019-03-17T12:19:04.939Z,962.48
2019-03-17T12:20:04.941Z,962.54
2019-03-17T12:21:04.376Z,962.51
2019-03-17T12:22:09.692Z,962.54
2019-03-17T12:23:05.380Z,962.59
2019-03-17T12:24:05.408Z,962.54
2019-03-17T12:25:05.301Z,962.54
2019-03-17T12:26:05.280Z,962.35
2019-03-17T12:27:04.782Z,962.63
2019-03-17T12:28:04.961Z,962.71